sensor_id;sensor_type;location;lat;lon;timestamp;temperature;humidity
49124;DHT22;48506;48.202;16.274;2023-09-19T00:00:41;21.20;92.40
49124;DHT22;48506;48.202;16.274;2023-09-19T00:03:08;21.00;92.90
49124;DHT22;48506;48.202;16.274;2023-09-19T00:05:35;20.90;93.50
49124;DHT22;48506;48.202;16.274;2023-09-19T00:08:02;20.70;94.10
49124;DHT22;48506;48.202;16.274;2023-09-19T00:10:30;20.70;94.80
49124;DHT22;48506;48.202;16.274;2023-09-19T00:12:58;20.50;95.50
49124;DHT22;48506;48.202;16.274;2023-09-19T00:15:35;20.40;95.70
49124;DHT22;48506;48.202;16.274;2023-09-19T00:18:04;20.10;96.30
49124;DHT22;48506;48.202;16.274;2023-09-19T00:20:38;20.00;97.10
49124;DHT22;48506;48.202;16.274;2023-09-19T00:23:04;19.90;97.80
49124;DHT22;48506;48.202;16.274;2023-09-19T00:25:36;19.70;98.40
49124;DHT22;48506;48.202;16.274;2023-09-19T00:28:04;19.70;98.70
49124;DHT22;48506;48.202;16.274;2023-09-19T00:30:31;19.60;99.10
49124;DHT22;48506;48.202;16.274;2023-09-19T00:32:59;19.50;99.20
49124;DHT22;48506;48.202;16.274;2023-09-19T00:35:26;19.50;99.60
49124;DHT22;48506;48.202;16.274;2023-09-19T00:37:53;19.50;99.60
49124;DHT22;48506;48.202;16.274;2023-09-19T00:40:21;19.40;99.90
49124;DHT22;48506;48.202;16.274;2023-09-19T00:42:48;19.30;99.90
49124;DHT22;48506;48.202;16.274;2023-09-19T00:45:16;19.30;99.90
49124;DHT22;48506;48.202;16.274;2023-09-19T00:47:49;19.20;99.90
49124;DHT22;48506;48.202;16.274;2023-09-19T00:50:17;19.20;99.90
49124;DHT22;48506;48.202;16.274;2023-09-19T00:52:46;19.10;99.90
49124;DHT22;48506;48.202;16.274;2023-09-19T00:55:15;19.20;99.90
49124;DHT22;48506;48.202;16.274;2023-09-19T00:57:42;19.20;99.90
49124;DHT22;48506;48.202;16.274;2023-09-19T01:00:10;19.20;99.90
49124;DHT22;48506;48.202;16.274;2023-09-19T01:02:42;19.10;99.90
49124;DHT22;48506;48.202;16.274;2023-09-19T01:05:10;19.10;99.90
49124;DHT22;48506;48.202;16.274;2023-09-19T01:07:36;19.10;99.90
49124;DHT22;48506;48.202;16.274;2023-09-19T01:10:06;19.10;99.90
49124;DHT22;48506;48.202;16.274;2023-09-19T01:13:01;19.00;99.90
49124;DHT22;48506;48.202;16.274;2023-09-19T01:21:18;18.90;99.90
49124;DHT22;48506;48.202;16.274;2023-09-19T01:32:03;18.70;99.90
49124;DHT22;48506;48.202;16.274;2023-09-19T01:35:04;18.50;99.90
49124;DHT22;48506;48.202;16.274;2023-09-19T01:37:31;18.50;99.90
49124;DHT22;48506;48.202;16.274;2023-09-19T01:40:03;18.50;99.90
49124;DHT22;48506;48.202;16.274;2023-09-19T01:42:49;18.40;99.90
49124;DHT22;48506;48.202;16.274;2023-09-19T01:51:00;18.30;99.90
49124;DHT22;48506;48.202;16.274;2023-09-19T01:56:25;18.30;99.90
49124;DHT22;48506;48.202;16.274;2023-09-19T01:58:56;18.30;99.90
49124;DHT22;48506;48.202;16.274;2023-09-19T02:01:24;18.30;99.90
49124;DHT22;48506;48.202;16.274;2023-09-19T02:03:53;18.30;99.90
49124;DHT22;48506;48.202;16.274;2023-09-19T02:06:20;18.30;99.90
49124;DHT22;48506;48.202;16.274;2023-09-19T02:08:46;18.30;99.90
49124;DHT22;48506;48.202;16.274;2023-09-19T02:11:13;18.30;99.90
49124;DHT22;48506;48.202;16.274;2023-09-19T02:13:39;18.30;99.90
49124;DHT22;48506;48.202;16.274;2023-09-19T02:16:06;18.30;99.90
49124;DHT22;48506;48.202;16.274;2023-09-19T02:18:33;18.30;99.90
49124;DHT22;48506;48.202;16.274;2023-09-19T02:21:03;18.30;99.90
49124;DHT22;48506;48.202;16.274;2023-09-19T02:23:30;18.20;99.90
49124;DHT22;48506;48.202;16.274;2023-09-19T02:25:57;18.30;99.90
49124;DHT22;48506;48.202;16.274;2023-09-19T02:28:32;18.30;99.90
49124;DHT22;48506;48.202;16.274;2023-09-19T02:30:58;18.40;99.90
49124;DHT22;48506;48.202;16.274;2023-09-19T02:33:25;18.40;99.90
49124;DHT22;48506;48.202;16.274;2023-09-19T02:35:58;18.40;99.90
49124;DHT22;48506;48.202;16.274;2023-09-19T02:38:27;18.40;99.90
49124;DHT22;48506;48.202;16.274;2023-09-19T02:40:55;18.40;99.90
49124;DHT22;48506;48.202;16.274;2023-09-19T02:43:22;18.50;99.90
49124;DHT22;48506;48.202;16.274;2023-09-19T02:45:49;18.40;99.90
49124;DHT22;48506;48.202;16.274;2023-09-19T02:48:16;18.40;99.90
49124;DHT22;48506;48.202;16.274;2023-09-19T02:50:42;18.40;99.90
49124;DHT22;48506;48.202;16.274;2023-09-19T02:53:10;18.40;99.90
49124;DHT22;48506;48.202;16.274;2023-09-19T02:55:38;18.40;99.90
49124;DHT22;48506;48.202;16.274;2023-09-19T02:58:06;18.40;99.90
49124;DHT22;48506;48.202;16.274;2023-09-19T03:00:40;18.40;99.90
49124;DHT22;48506;48.202;16.274;2023-09-19T03:03:08;18.40;99.90
49124;DHT22;48506;48.202;16.274;2023-09-19T03:05:34;18.40;99.90
49124;DHT22;48506;48.202;16.274;2023-09-19T03:08:01;18.40;99.90
49124;DHT22;48506;48.202;16.274;2023-09-19T03:10:28;18.50;99.90
49124;DHT22;48506;48.202;16.274;2023-09-19T03:12:56;18.50;99.90
49124;DHT22;48506;48.202;16.274;2023-09-19T03:15:22;18.60;99.90
49124;DHT22;48506;48.202;16.274;2023-09-19T03:17:49;18.60;99.90
49124;DHT22;48506;48.202;16.274;2023-09-19T03:20:15;18.60;99.90
49124;DHT22;48506;48.202;16.274;2023-09-19T03:22:45;18.70;99.90
49124;DHT22;48506;48.202;16.274;2023-09-19T03:25:12;18.70;99.90
49124;DHT22;48506;48.202;16.274;2023-09-19T03:27:38;18.60;99.90
49124;DHT22;48506;48.202;16.274;2023-09-19T03:30:05;18.50;99.90
49124;DHT22;48506;48.202;16.274;2023-09-19T03:32:43;18.50;99.90
49124;DHT22;48506;48.202;16.274;2023-09-19T03:35:09;18.50;99.90
49124;DHT22;48506;48.202;16.274;2023-09-19T03:37:40;18.50;99.90
49124;DHT22;48506;48.202;16.274;2023-09-19T03:40:08;18.50;99.90
49124;DHT22;48506;48.202;16.274;2023-09-19T03:42:39;18.60;99.90
49124;DHT22;48506;48.202;16.274;2023-09-19T03:45:06;18.50;99.90
49124;DHT22;48506;48.202;16.274;2023-09-19T03:47:33;18.60;99.90
49124;DHT22;48506;48.202;16.274;2023-09-19T03:49:59;18.60;99.90
49124;DHT22;48506;48.202;16.274;2023-09-19T03:52:25;18.60;99.90
49124;DHT22;48506;48.202;16.274;2023-09-19T03:54:51;18.60;99.90
49124;DHT22;48506;48.202;16.274;2023-09-19T03:57:17;18.60;99.90
49124;DHT22;48506;48.202;16.274;2023-09-19T03:59:46;18.60;99.90
49124;DHT22;48506;48.202;16.274;2023-09-19T04:02:13;18.60;99.90
49124;DHT22;48506;48.202;16.274;2023-09-19T04:04:49;18.60;99.90
49124;DHT22;48506;48.202;16.274;2023-09-19T04:07:16;18.60;99.90
49124;DHT22;48506;48.202;16.274;2023-09-19T04:09:43;18.60;99.90
49124;DHT22;48506;48.202;16.274;2023-09-19T04:12:09;18.60;99.90
49124;DHT22;48506;48.202;16.274;2023-09-19T04:14:35;18.60;99.90
49124;DHT22;48506;48.202;16.274;2023-09-19T04:17:01;18.50;99.90
49124;DHT22;48506;48.202;16.274;2023-09-19T04:19:27;18.60;99.90
49124;DHT22;48506;48.202;16.274;2023-09-19T04:21:53;18.60;99.90
49124;DHT22;48506;48.202;16.274;2023-09-19T04:24:19;18.60;99.90
49124;DHT22;48506;48.202;16.274;2023-09-19T04:26:45;18.60;99.90
49124;DHT22;48506;48.202;16.274;2023-09-19T04:29:12;18.50;99.90
49124;DHT22;48506;48.202;16.274;2023-09-19T04:31:40;18.50;99.90
49124;DHT22;48506;48.202;16.274;2023-09-19T04:34:06;18.50;99.90
49124;DHT22;48506;48.202;16.274;2023-09-19T04:36:34;18.60;99.90
49124;DHT22;48506;48.202;16.274;2023-09-19T04:39:03;18.60;99.90
49124;DHT22;48506;48.202;16.274;2023-09-19T04:41:33;18.50;99.90
49124;DHT22;48506;48.202;16.274;2023-09-19T04:44:00;18.50;99.90
49124;DHT22;48506;48.202;16.274;2023-09-19T04:46:26;18.50;99.90
49124;DHT22;48506;48.202;16.274;2023-09-19T04:48:52;18.50;99.90
49124;DHT22;48506;48.202;16.274;2023-09-19T04:51:18;18.50;99.90
49124;DHT22;48506;48.202;16.274;2023-09-19T04:53:46;18.50;99.90
49124;DHT22;48506;48.202;16.274;2023-09-19T04:56:14;18.40;99.90
49124;DHT22;48506;48.202;16.274;2023-09-19T04:58:40;18.40;99.90
49124;DHT22;48506;48.202;16.274;2023-09-19T05:01:07;18.50;99.90
49124;DHT22;48506;48.202;16.274;2023-09-19T05:03:37;18.50;99.90
49124;DHT22;48506;48.202;16.274;2023-09-19T05:06:04;18.40;99.90
49124;DHT22;48506;48.202;16.274;2023-09-19T05:08:31;18.40;99.90
49124;DHT22;48506;48.202;16.274;2023-09-19T05:10:57;18.40;99.90
49124;DHT22;48506;48.202;16.274;2023-09-19T05:13:23;18.40;99.90
49124;DHT22;48506;48.202;16.274;2023-09-19T05:15:50;18.40;99.90
49124;DHT22;48506;48.202;16.274;2023-09-19T05:18:16;18.30;99.90
49124;DHT22;48506;48.202;16.274;2023-09-19T05:20:42;18.30;99.90
49124;DHT22;48506;48.202;16.274;2023-09-19T05:23:09;18.20;99.90
49124;DHT22;48506;48.202;16.274;2023-09-19T05:25:38;18.20;99.90
49124;DHT22;48506;48.202;16.274;2023-09-19T05:28:10;18.20;99.90
49124;DHT22;48506;48.202;16.274;2023-09-19T05:30:38;18.30;99.90
49124;DHT22;48506;48.202;16.274;2023-09-19T05:33:05;18.30;99.90
49124;DHT22;48506;48.202;16.274;2023-09-19T05:35:31;18.30;99.90
49124;DHT22;48506;48.202;16.274;2023-09-19T05:37:58;18.30;99.90
49124;DHT22;48506;48.202;16.274;2023-09-19T05:40:25;18.30;99.90
49124;DHT22;48506;48.202;16.274;2023-09-19T05:42:51;18.30;99.90
49124;DHT22;48506;48.202;16.274;2023-09-19T05:45:17;18.30;99.90
49124;DHT22;48506;48.202;16.274;2023-09-19T05:47:50;18.30;99.90
49124;DHT22;48506;48.202;16.274;2023-09-19T05:50:19;18.30;99.90
49124;DHT22;48506;48.202;16.274;2023-09-19T05:52:52;18.30;99.90
49124;DHT22;48506;48.202;16.274;2023-09-19T05:55:19;18.30;99.90
49124;DHT22;48506;48.202;16.274;2023-09-19T05:57:50;18.40;99.90
49124;DHT22;48506;48.202;16.274;2023-09-19T06:00:21;18.50;99.90
49124;DHT22;48506;48.202;16.274;2023-09-19T06:02:52;18.50;99.90
49124;DHT22;48506;48.202;16.274;2023-09-19T06:05:19;18.40;99.90
49124;DHT22;48506;48.202;16.274;2023-09-19T06:07:45;18.40;99.90
49124;DHT22;48506;48.202;16.274;2023-09-19T06:10:12;18.40;99.90
49124;DHT22;48506;48.202;16.274;2023-09-19T06:12:40;18.50;99.90
49124;DHT22;48506;48.202;16.274;2023-09-19T06:15:06;18.50;99.90
49124;DHT22;48506;48.202;16.274;2023-09-19T06:17:50;18.50;99.90
49124;DHT22;48506;48.202;16.274;2023-09-19T06:20:17;18.60;99.90
49124;DHT22;48506;48.202;16.274;2023-09-19T06:22:45;18.60;99.90
49124;DHT22;48506;48.202;16.274;2023-09-19T06:25:13;18.70;99.90
49124;DHT22;48506;48.202;16.274;2023-09-19T06:27:53;18.70;99.90
49124;DHT22;48506;48.202;16.274;2023-09-19T06:30:21;18.80;99.90
49124;DHT22;48506;48.202;16.274;2023-09-19T06:32:48;18.80;99.90
49124;DHT22;48506;48.202;16.274;2023-09-19T06:35:16;18.80;99.90
49124;DHT22;48506;48.202;16.274;2023-09-19T06:37:43;18.90;99.90
49124;DHT22;48506;48.202;16.274;2023-09-19T06:40:11;18.80;99.90
49124;DHT22;48506;48.202;16.274;2023-09-19T06:42:45;18.90;99.90
49124;DHT22;48506;48.202;16.274;2023-09-19T06:45:15;19.00;99.90
49124;DHT22;48506;48.202;16.274;2023-09-19T06:47:45;19.00;99.90
49124;DHT22;48506;48.202;16.274;2023-09-19T06:50:15;19.10;99.90
49124;DHT22;48506;48.202;16.274;2023-09-19T06:52:45;19.10;99.90
49124;DHT22;48506;48.202;16.274;2023-09-19T06:55:12;19.20;99.90
49124;DHT22;48506;48.202;16.274;2023-09-19T06:57:39;19.20;99.90
49124;DHT22;48506;48.202;16.274;2023-09-19T07:00:07;19.20;99.90
49124;DHT22;48506;48.202;16.274;2023-09-19T07:02:42;19.20;99.90
49124;DHT22;48506;48.202;16.274;2023-09-19T07:05:08;19.20;99.90
49124;DHT22;48506;48.202;16.274;2023-09-19T07:07:35;19.20;99.90
49124;DHT22;48506;48.202;16.274;2023-09-19T07:10:02;19.20;99.90
49124;DHT22;48506;48.202;16.274;2023-09-19T07:12:32;19.20;99.90
49124;DHT22;48506;48.202;16.274;2023-09-19T07:15:01;19.20;99.90
49124;DHT22;48506;48.202;16.274;2023-09-19T07:17:27;19.20;99.90
49124;DHT22;48506;48.202;16.274;2023-09-19T07:19:54;19.20;99.90
49124;DHT22;48506;48.202;16.274;2023-09-19T07:22:21;19.20;99.90
49124;DHT22;48506;48.202;16.274;2023-09-19T07:24:47;19.20;99.90
49124;DHT22;48506;48.202;16.274;2023-09-19T07:27:14;19.20;99.90
49124;DHT22;48506;48.202;16.274;2023-09-19T07:29:41;19.10;99.90
49124;DHT22;48506;48.202;16.274;2023-09-19T07:32:07;19.20;99.90
49124;DHT22;48506;48.202;16.274;2023-09-19T07:34:34;19.20;99.90
49124;DHT22;48506;48.202;16.274;2023-09-19T07:37:00;19.20;99.90
49124;DHT22;48506;48.202;16.274;2023-09-19T07:39:27;19.30;99.90
49124;DHT22;48506;48.202;16.274;2023-09-19T07:41:53;19.40;99.90
49124;DHT22;48506;48.202;16.274;2023-09-19T07:44:20;19.40;99.90
49124;DHT22;48506;48.202;16.274;2023-09-19T07:46:49;19.40;99.90
49124;DHT22;48506;48.202;16.274;2023-09-19T07:49:17;19.50;99.90
49124;DHT22;48506;48.202;16.274;2023-09-19T07:51:43;19.50;99.90
49124;DHT22;48506;48.202;16.274;2023-09-19T07:54:12;19.60;99.90
49124;DHT22;48506;48.202;16.274;2023-09-19T07:56:40;19.60;99.90
49124;DHT22;48506;48.202;16.274;2023-09-19T07:59:06;19.60;99.90
49124;DHT22;48506;48.202;16.274;2023-09-19T08:01:32;19.70;99.90
49124;DHT22;48506;48.202;16.274;2023-09-19T08:03:58;19.80;99.90
49124;DHT22;48506;48.202;16.274;2023-09-19T08:06:25;20.00;99.90
49124;DHT22;48506;48.202;16.274;2023-09-19T08:08:55;20.10;99.90
49124;DHT22;48506;48.202;16.274;2023-09-19T08:11:22;20.20;99.90
49124;DHT22;48506;48.202;16.274;2023-09-19T08:13:50;20.20;99.90
49124;DHT22;48506;48.202;16.274;2023-09-19T08:16:16;20.20;99.90
49124;DHT22;48506;48.202;16.274;2023-09-19T08:18:48;20.20;99.90
49124;DHT22;48506;48.202;16.274;2023-09-19T08:21:14;20.20;99.90
49124;DHT22;48506;48.202;16.274;2023-09-19T08:23:40;20.20;99.90
49124;DHT22;48506;48.202;16.274;2023-09-19T08:26:07;20.30;99.90
49124;DHT22;48506;48.202;16.274;2023-09-19T08:28:35;20.40;99.90
49124;DHT22;48506;48.202;16.274;2023-09-19T08:31:05;20.50;99.90
49124;DHT22;48506;48.202;16.274;2023-09-19T08:33:35;20.50;99.90
49124;DHT22;48506;48.202;16.274;2023-09-19T08:36:02;20.50;99.90
49124;DHT22;48506;48.202;16.274;2023-09-19T08:38:34;20.50;99.90
49124;DHT22;48506;48.202;16.274;2023-09-19T08:41:05;20.40;99.90
49124;DHT22;48506;48.202;16.274;2023-09-19T08:43:32;20.40;99.90
49124;DHT22;48506;48.202;16.274;2023-09-19T08:48:31;20.30;99.90
49124;DHT22;48506;48.202;16.274;2023-09-19T08:51:10;20.20;99.90
49124;DHT22;48506;48.202;16.274;2023-09-19T08:54:07;20.20;99.90
49124;DHT22;48506;48.202;16.274;2023-09-19T08:56:36;20.20;99.90
49124;DHT22;48506;48.202;16.274;2023-09-19T08:59:06;20.20;99.90
49124;DHT22;48506;48.202;16.274;2023-09-19T09:01:38;20.30;99.90
49124;DHT22;48506;48.202;16.274;2023-09-19T09:04:11;20.30;99.90
49124;DHT22;48506;48.202;16.274;2023-09-19T09:06:39;20.30;99.90
49124;DHT22;48506;48.202;16.274;2023-09-19T09:09:06;20.30;99.90
49124;DHT22;48506;48.202;16.274;2023-09-19T09:11:36;20.30;99.90
49124;DHT22;48506;48.202;16.274;2023-09-19T09:14:06;20.30;99.90
49124;DHT22;48506;48.202;16.274;2023-09-19T09:16:33;20.40;99.90
49124;DHT22;48506;48.202;16.274;2023-09-19T09:19:00;20.40;99.90
49124;DHT22;48506;48.202;16.274;2023-09-19T09:21:28;20.50;99.90
49124;DHT22;48506;48.202;16.274;2023-09-19T09:23:54;20.50;99.80
49124;DHT22;48506;48.202;16.274;2023-09-19T09:29:05;20.70;99.90
49124;DHT22;48506;48.202;16.274;2023-09-19T09:31:31;20.80;99.90
49124;DHT22;48506;48.202;16.274;2023-09-19T09:33:57;20.90;99.80
49124;DHT22;48506;48.202;16.274;2023-09-19T09:36:37;20.90;99.60
49124;DHT22;48506;48.202;16.274;2023-09-19T09:39:04;21.10;99.60
49124;DHT22;48506;48.202;16.274;2023-09-19T09:41:50;21.30;99.90
49124;DHT22;48506;48.202;16.274;2023-09-19T09:44:17;21.40;98.60
49124;DHT22;48506;48.202;16.274;2023-09-19T09:46:46;21.70;98.70
49124;DHT22;48506;48.202;16.274;2023-09-19T09:49:23;21.80;98.00
49124;DHT22;48506;48.202;16.274;2023-09-19T09:52:01;22.10;98.40
49124;DHT22;48506;48.202;16.274;2023-09-19T09:54:31;22.30;98.00
49124;DHT22;48506;48.202;16.274;2023-09-19T09:57:06;22.40;97.30
49124;DHT22;48506;48.202;16.274;2023-09-19T09:59:54;22.40;96.80
49124;DHT22;48506;48.202;16.274;2023-09-19T10:02:29;22.30;96.50
49124;DHT22;48506;48.202;16.274;2023-09-19T10:04:59;22.30;96.50
49124;DHT22;48506;48.202;16.274;2023-09-19T10:07:41;22.30;96.90
49124;DHT22;48506;48.202;16.274;2023-09-19T10:10:14;22.40;96.80
49124;DHT22;48506;48.202;16.274;2023-09-19T10:12:48;22.50;96.10
49124;DHT22;48506;48.202;16.274;2023-09-19T10:15:18;22.40;96.20
49124;DHT22;48506;48.202;16.274;2023-09-19T10:17:52;22.50;96.60
49124;DHT22;48506;48.202;16.274;2023-09-19T10:20:22;22.50;96.20
49124;DHT22;48506;48.202;16.274;2023-09-19T10:22:59;22.60;96.00
49124;DHT22;48506;48.202;16.274;2023-09-19T10:25:29;22.70;95.60
49124;DHT22;48506;48.202;16.274;2023-09-19T10:28:00;22.80;95.30
49124;DHT22;48506;48.202;16.274;2023-09-19T10:30:30;22.90;95.30
49124;DHT22;48506;48.202;16.274;2023-09-19T10:33:02;22.90;94.80
49124;DHT22;48506;48.202;16.274;2023-09-19T10:35:29;22.80;95.30
49124;DHT22;48506;48.202;16.274;2023-09-19T10:37:59;22.90;95.40
49124;DHT22;48506;48.202;16.274;2023-09-19T10:40:27;23.20;95.70
49124;DHT22;48506;48.202;16.274;2023-09-19T10:43:04;23.50;95.10
49124;DHT22;48506;48.202;16.274;2023-09-19T10:45:35;23.70;94.50
49124;DHT22;48506;48.202;16.274;2023-09-19T10:48:02;24.10;93.80
49124;DHT22;48506;48.202;16.274;2023-09-19T10:50:53;24.20;93.50
49124;DHT22;48506;48.202;16.274;2023-09-19T10:53:21;24.60;93.60
49124;DHT22;48506;48.202;16.274;2023-09-19T10:55:56;24.70;92.60
49124;DHT22;48506;48.202;16.274;2023-09-19T10:58:31;24.80;91.70
49124;DHT22;48506;48.202;16.274;2023-09-19T11:01:04;24.80;91.90
49124;DHT22;48506;48.202;16.274;2023-09-19T11:03:41;24.80;91.40
49124;DHT22;48506;48.202;16.274;2023-09-19T11:06:14;24.90;90.90
49124;DHT22;48506;48.202;16.274;2023-09-19T11:09:04;24.90;91.80
49124;DHT22;48506;48.202;16.274;2023-09-19T11:11:39;25.20;91.60
49124;DHT22;48506;48.202;16.274;2023-09-19T11:30:42;25.00;89.40
49124;DHT22;48506;48.202;16.274;2023-09-19T11:33:21;24.90;90.50
49124;DHT22;48506;48.202;16.274;2023-09-19T11:36:16;25.20;90.00
49124;DHT22;48506;48.202;16.274;2023-09-19T11:46:18;25.40;90.00
49124;DHT22;48506;48.202;16.274;2023-09-19T11:48:54;25.50;90.10
49124;DHT22;48506;48.202;16.274;2023-09-19T11:51:23;25.70;90.30
49124;DHT22;48506;48.202;16.274;2023-09-19T11:54:03;25.80;89.50
49124;DHT22;48506;48.202;16.274;2023-09-19T11:56:29;25.80;86.50
49124;DHT22;48506;48.202;16.274;2023-09-19T11:58:57;25.60;87.50
49124;DHT22;48506;48.202;16.274;2023-09-19T12:01:30;25.50;85.80
49124;DHT22;48506;48.202;16.274;2023-09-19T12:03:58;25.40;86.40
49124;DHT22;48506;48.202;16.274;2023-09-19T12:06:27;25.30;86.00
49124;DHT22;48506;48.202;16.274;2023-09-19T12:08:53;25.40;87.60
49124;DHT22;48506;48.202;16.274;2023-09-19T12:11:29;25.50;87.10
49124;DHT22;48506;48.202;16.274;2023-09-19T12:14:00;25.60;86.90
49124;DHT22;48506;48.202;16.274;2023-09-19T12:16:29;25.70;86.80
49124;DHT22;48506;48.202;16.274;2023-09-19T12:18:57;25.60;85.90
49124;DHT22;48506;48.202;16.274;2023-09-19T12:21:28;25.80;87.20
49124;DHT22;48506;48.202;16.274;2023-09-19T12:24:17;25.90;84.80
49124;DHT22;48506;48.202;16.274;2023-09-19T12:26:46;25.90;86.50
49124;DHT22;48506;48.202;16.274;2023-09-19T12:29:20;25.90;84.80
49124;DHT22;48506;48.202;16.274;2023-09-19T12:31:56;25.90;85.20
49124;DHT22;48506;48.202;16.274;2023-09-19T12:34:29;26.00;85.30
49124;DHT22;48506;48.202;16.274;2023-09-19T12:37:05;26.10;85.00
49124;DHT22;48506;48.202;16.274;2023-09-19T12:39:42;26.20;84.20
49124;DHT22;48506;48.202;16.274;2023-09-19T12:42:11;26.20;83.40
49124;DHT22;48506;48.202;16.274;2023-09-19T12:44:46;26.10;83.80
49124;DHT22;48506;48.202;16.274;2023-09-19T12:47:17;26.10;84.00
49124;DHT22;48506;48.202;16.274;2023-09-19T12:52:52;26.10;84.30
49124;DHT22;48506;48.202;16.274;2023-09-19T12:55:30;26.20;84.50
49124;DHT22;48506;48.202;16.274;2023-09-19T13:00:39;26.40;83.20
49124;DHT22;48506;48.202;16.274;2023-09-19T13:05:55;26.30;81.90
49124;DHT22;48506;48.202;16.274;2023-09-19T13:08:27;26.30;81.60
49124;DHT22;48506;48.202;16.274;2023-09-19T13:11:12;26.30;82.90
49124;DHT22;48506;48.202;16.274;2023-09-19T13:13:41;26.30;81.50
49124;DHT22;48506;48.202;16.274;2023-09-19T13:16:07;26.20;81.20
49124;DHT22;48506;48.202;16.274;2023-09-19T13:18:54;26.20;79.70
49124;DHT22;48506;48.202;16.274;2023-09-19T13:21:31;26.20;78.90
49124;DHT22;48506;48.202;16.274;2023-09-19T13:24:25;26.10;78.10
49124;DHT22;48506;48.202;16.274;2023-09-19T13:26:56;26.10;78.80
49124;DHT22;48506;48.202;16.274;2023-09-19T13:29:25;26.00;76.70
49124;DHT22;48506;48.202;16.274;2023-09-19T13:31:52;26.00;77.40
49124;DHT22;48506;48.202;16.274;2023-09-19T13:34:19;26.00;79.10
49124;DHT22;48506;48.202;16.274;2023-09-19T13:36:47;26.00;78.20
49124;DHT22;48506;48.202;16.274;2023-09-19T13:39:14;26.00;78.70
49124;DHT22;48506;48.202;16.274;2023-09-19T13:41:49;26.00;79.30
49124;DHT22;48506;48.202;16.274;2023-09-19T13:44:15;26.00;79.60
49124;DHT22;48506;48.202;16.274;2023-09-19T13:46:43;26.10;79.10
49124;DHT22;48506;48.202;16.274;2023-09-19T13:49:11;26.10;79.70
49124;DHT22;48506;48.202;16.274;2023-09-19T13:51:38;26.20;79.30
49124;DHT22;48506;48.202;16.274;2023-09-19T13:54:04;26.10;78.50
49124;DHT22;48506;48.202;16.274;2023-09-19T13:56:31;26.20;78.80
49124;DHT22;48506;48.202;16.274;2023-09-19T13:58:57;26.10;79.20
49124;DHT22;48506;48.202;16.274;2023-09-19T14:01:23;26.00;79.20
49124;DHT22;48506;48.202;16.274;2023-09-19T14:03:49;26.10;78.60
49124;DHT22;48506;48.202;16.274;2023-09-19T14:06:17;26.00;78.50
49124;DHT22;48506;48.202;16.274;2023-09-19T14:08:44;26.00;79.40
49124;DHT22;48506;48.202;16.274;2023-09-19T14:11:14;26.10;79.00
49124;DHT22;48506;48.202;16.274;2023-09-19T14:13:40;26.10;78.70
49124;DHT22;48506;48.202;16.274;2023-09-19T14:16:09;26.20;78.40
49124;DHT22;48506;48.202;16.274;2023-09-19T14:18:35;26.30;78.40
49124;DHT22;48506;48.202;16.274;2023-09-19T14:21:05;26.30;78.70
49124;DHT22;48506;48.202;16.274;2023-09-19T14:23:40;26.10;78.30
49124;DHT22;48506;48.202;16.274;2023-09-19T14:26:10;25.90;77.60
49124;DHT22;48506;48.202;16.274;2023-09-19T14:28:36;25.80;77.70
49124;DHT22;48506;48.202;16.274;2023-09-19T14:31:13;25.70;79.50
49124;DHT22;48506;48.202;16.274;2023-09-19T14:33:40;25.80;77.80
49124;DHT22;48506;48.202;16.274;2023-09-19T14:36:08;25.60;78.10
49124;DHT22;48506;48.202;16.274;2023-09-19T14:38:37;25.50;78.40
49124;DHT22;48506;48.202;16.274;2023-09-19T14:41:05;25.60;78.10
49124;DHT22;48506;48.202;16.274;2023-09-19T14:43:32;25.60;80.20
49124;DHT22;48506;48.202;16.274;2023-09-19T14:46:05;25.70;79.70
49124;DHT22;48506;48.202;16.274;2023-09-19T14:48:38;25.70;80.20
49124;DHT22;48506;48.202;16.274;2023-09-19T14:51:06;25.70;79.10
49124;DHT22;48506;48.202;16.274;2023-09-19T14:53:37;25.60;79.00
49124;DHT22;48506;48.202;16.274;2023-09-19T14:56:04;25.50;79.40
49124;DHT22;48506;48.202;16.274;2023-09-19T14:58:31;25.50;80.10
49124;DHT22;48506;48.202;16.274;2023-09-19T15:01:06;25.60;81.20
49124;DHT22;48506;48.202;16.274;2023-09-19T15:03:34;25.70;81.50
49124;DHT22;48506;48.202;16.274;2023-09-19T15:06:10;25.70;80.30
49124;DHT22;48506;48.202;16.274;2023-09-19T15:08:41;25.60;80.40
49124;DHT22;48506;48.202;16.274;2023-09-19T15:11:12;25.60;80.10
49124;DHT22;48506;48.202;16.274;2023-09-19T15:13:40;25.50;80.60
49124;DHT22;48506;48.202;16.274;2023-09-19T15:16:08;25.50;80.10
49124;DHT22;48506;48.202;16.274;2023-09-19T15:18:37;25.40;81.60
49124;DHT22;48506;48.202;16.274;2023-09-19T15:21:04;25.50;81.70
49124;DHT22;48506;48.202;16.274;2023-09-19T15:23:31;25.50;81.90
49124;DHT22;48506;48.202;16.274;2023-09-19T15:26:01;25.70;81.10
49124;DHT22;48506;48.202;16.274;2023-09-19T15:28:28;25.80;81.40
49124;DHT22;48506;48.202;16.274;2023-09-19T15:31:04;25.80;80.10
49124;DHT22;48506;48.202;16.274;2023-09-19T15:33:30;25.80;79.50
49124;DHT22;48506;48.202;16.274;2023-09-19T15:36:06;25.70;80.30
49124;DHT22;48506;48.202;16.274;2023-09-19T15:38:56;25.70;79.30
49124;DHT22;48506;48.202;16.274;2023-09-19T15:41:28;25.70;80.80
49124;DHT22;48506;48.202;16.274;2023-09-19T15:43:57;25.70;80.30
49124;DHT22;48506;48.202;16.274;2023-09-19T15:46:25;25.80;80.60
49124;DHT22;48506;48.202;16.274;2023-09-19T15:48:53;25.60;79.50
49124;DHT22;48506;48.202;16.274;2023-09-19T15:51:20;25.60;81.20
49124;DHT22;48506;48.202;16.274;2023-09-19T15:53:48;25.60;80.90
49124;DHT22;48506;48.202;16.274;2023-09-19T15:56:19;25.50;80.60
49124;DHT22;48506;48.202;16.274;2023-09-19T15:58:50;25.70;79.90
49124;DHT22;48506;48.202;16.274;2023-09-19T16:01:18;25.90;78.70
49124;DHT22;48506;48.202;16.274;2023-09-19T16:03:48;26.00;78.90
49124;DHT22;48506;48.202;16.274;2023-09-19T16:06:19;26.50;78.30
49124;DHT22;48506;48.202;16.274;2023-09-19T16:08:51;26.90;76.40
49124;DHT22;48506;48.202;16.274;2023-09-19T16:11:19;27.10;77.00
49124;DHT22;48506;48.202;16.274;2023-09-19T16:13:49;26.80;76.90
49124;DHT22;48506;48.202;16.274;2023-09-19T16:16:16;26.40;77.50
49124;DHT22;48506;48.202;16.274;2023-09-19T16:18:46;25.90;78.70
49124;DHT22;48506;48.202;16.274;2023-09-19T16:21:14;25.40;78.40
49124;DHT22;48506;48.202;16.274;2023-09-19T16:23:45;25.00;79.80
49124;DHT22;48506;48.202;16.274;2023-09-19T16:26:11;24.60;80.40
49124;DHT22;48506;48.202;16.274;2023-09-19T16:28:40;24.30;81.00
49124;DHT22;48506;48.202;16.274;2023-09-19T16:31:08;24.10;82.40